Time;durP1;ratioP1;P1;durP2;ratioP2;P2;SDS_P1;SDS_P2;PMS_P1;PMS_P2;Temp;Humidity;BMP_temperature;BMP_pressure;BME280_temperature;BME280_humidity;BME280_pressure;Samples;Min_cycle;Max_cycle;Signal;HPM_P1;HPM_P2
2023/09/08 00:01:00;;;;;;;54.65;30.48;;;;;;;;;;5103994;28;20025;-71
2023/09/08 00:03:26;;;;;;;51.15;29.33;;;;;;;;;;5100354;28;20528;-70
2023/09/08 00:05:52;;;;;;;50.95;31.42;;;;;;;;;;5098636;28;20063;-70
2023/09/08 00:08:18;;;;;;;53.63;31.95;;;;;;;;;;5099675;28;20570;-71
2023/09/08 00:10:44;;;;;;;54.13;31.23;;;;;;;;;;5100831;28;20110;-71
2023/09/08 00:13:11;;;;;;;60.75;31.85;;;;;;;;;;5101443;28;20487;-71
2023/09/08 00:15:39;;;;;;;54.67;32.58;;;;;;;;;;5099266;28;20563;-71
2023/09/08 00:18:05;;;;;;;54.22;31.50;;;;;;;;;;5084638;28;20513;-72
2023/09/08 00:20:32;;;;;;;56.42;33.92;;;;;;;;;;5103802;28;20028;-71
2023/09/08 00:22:58;;;;;;;51.67;33.03;;;;;;;;;;5102014;28;20067;-71
2023/09/08 00:25:24;;;;;;;57.83;30.45;;;;;;;;;;5101041;28;20035;-70
2023/09/08 00:27:50;;;;;;;55.10;33.00;;;;;;;;;;5104811;28;20039;-71
2023/09/08 00:30:18;;;;;;;55.97;32.50;;;;;;;;;;5103051;28;20023;-71
2023/09/08 00:32:45;;;;;;;55.58;31.80;;;;;;;;;;5102885;28;20035;-70
2023/09/08 00:35:13;;;;;;;51.35;32.17;;;;;;;;;;5077133;28;20082;-70
2023/09/08 00:37:40;;;;;;;57.38;34.00;;;;;;;;;;5093885;28;20024;-70
2023/09/08 00:40:08;;;;;;;56.28;33.05;;;;;;;;;;5101518;28;20023;-70
2023/09/08 00:42:34;;;;;;;52.75;31.63;;;;;;;;;;5103964;28;20031;-70
2023/09/08 00:45:00;;;;;;;57.80;32.22;;;;;;;;;;5099099;28;20028;-71
2023/09/08 00:47:26;;;;;;;56.78;32.85;;;;;;;;;;5098267;28;20085;-70
2023/09/08 00:49:53;;;;;;;53.45;31.98;;;;;;;;;;5099772;28;20038;-70
2023/09/08 00:52:19;;;;;;;57.85;32.40;;;;;;;;;;5077027;28;20097;-70
2023/09/08 00:54:45;;;;;;;62.83;33.33;;;;;;;;;;5082775;28;20383;-70
2023/09/08 00:57:11;;;;;;;56.13;30.40;;;;;;;;;;5098107;28;20468;-70
2023/09/08 00:59:38;;;;;;;64.38;32.97;;;;;;;;;;5089069;28;20027;-70
2023/09/08 01:02:04;;;;;;;51.72;32.53;;;;;;;;;;5103338;28;21547;-71
2023/09/08 01:04:31;;;;;;;54.60;31.80;;;;;;;;;;5087760;28;20031;-70
2023/09/08 01:06:57;;;;;;;55.33;33.50;;;;;;;;;;5082861;28;20050;-70
2023/09/08 01:09:24;;;;;;;55.05;32.83;;;;;;;;;;5100768;28;20399;-71
2023/09/08 01:11:51;;;;;;;56.10;30.80;;;;;;;;;;5101154;28;20763;-70
2023/09/08 01:14:20;;;;;;;53.50;31.92;;;;;;;;;;5099160;28;20032;-72
2023/09/08 01:16:46;;;;;;;59.63;32.58;;;;;;;;;;5101803;28;20084;-70
2023/09/08 01:19:14;;;;;;;51.17;31.13;;;;;;;;;;5085805;28;20028;-70
2023/09/08 01:21:52;;;;;;;53.47;31.80;;;;;;;;;;5082318;28;20096;-71
2023/09/08 01:24:39;;;;;;;58.78;32.10;;;;;;;;;;5091763;28;20027;-71
2023/09/08 01:27:07;;;;;;;55.90;31.90;;;;;;;;;;5079634;28;20050;-71
2023/09/08 01:29:34;;;;;;;54.13;32.42;;;;;;;;;;5097299;28;20023;-70
2023/09/08 01:32:00;;;;;;;51.50;31.40;;;;;;;;;;5103388;28;20046;-70
2023/09/08 01:34:27;;;;;;;59.28;33.53;;;;;;;;;;5102752;28;20031;-71
2023/09/08 01:36:53;;;;;;;56.30;31.58;;;;;;;;;;5103280;28;20028;-71
2023/09/08 01:39:19;;;;;;;57.78;33.17;;;;;;;;;;5101205;28;20716;-70
2023/09/08 01:41:45;;;;;;;63.80;33.03;;;;;;;;;;5100352;28;20084;-70
2023/09/08 01:44:12;;;;;;;53.45;32.33;;;;;;;;;;5102009;28;20152;-70
2023/09/08 01:46:39;;;;;;;62.10;31.20;;;;;;;;;;5081396;28;20484;-70
2023/09/08 01:49:05;;;;;;;60.47;32.50;;;;;;;;;;5085393;28;20024;-71
2023/09/08 01:51:31;;;;;;;59.30;32.78;;;;;;;;;;5104772;28;20506;-70
2023/09/08 01:53:57;;;;;;;58.03;32.10;;;;;;;;;;5104390;28;20061;-71
2023/09/08 01:56:23;;;;;;;68.35;35.67;;;;;;;;;;5080494;28;20499;-70
2023/09/08 01:58:49;;;;;;;55.20;32.67;;;;;;;;;;5098741;28;20070;-70
2023/09/08 02:01:16;;;;;;;56.13;30.58;;;;;;;;;;5101459;28;20024;-71
2023/09/08 02:03:42;;;;;;;54.58;33.00;;;;;;;;;;5086446;28;20446;-70
2023/09/08 02:06:08;;;;;;;53.88;31.60;;;;;;;;;;5097385;28;20392;-69
2023/09/08 02:08:34;;;;;;;57.97;32.60;;;;;;;;;;5084360;28;20024;-70
2023/09/08 02:11:00;;;;;;;56.45;31.00;;;;;;;;;;5098972;28;20061;-70
2023/09/08 02:13:26;;;;;;;61.15;33.35;;;;;;;;;;5096897;28;20028;-71
2023/09/08 02:15:52;;;;;;;51.35;30.02;;;;;;;;;;5099879;28;21042;-70
2023/09/08 02:18:19;;;;;;;50.05;30.50;;;;;;;;;;5103528;28;20027;-70
2023/09/08 02:20:45;;;;;;;56.00;33.88;;;;;;;;;;5102494;28;20442;-70
2023/09/08 02:23:11;;;;;;;58.92;33.30;;;;;;;;;;5103093;28;20020;-69
2023/09/08 02:25:37;;;;;;;55.75;32.60;;;;;;;;;;5099684;28;20028;-70
2023/09/08 02:28:03;;;;;;;52.28;31.70;;;;;;;;;;5093906;28;20031;-70
2023/09/08 02:30:29;;;;;;;52.88;29.20;;;;;;;;;;5100305;28;20114;-70
2023/09/08 02:32:56;;;;;;;50.70;30.23;;;;;;;;;;5104949;28;20084;-69
2023/09/08 02:35:23;;;;;;;52.80;31.85;;;;;;;;;;5101363;28;20053;-70
2023/09/08 02:37:49;;;;;;;54.28;33.75;;;;;;;;;;5106502;28;20696;-70
2023/09/08 02:40:16;;;;;;;57.45;32.45;;;;;;;;;;5087872;28;20376;-71
2023/09/08 02:42:42;;;;;;;54.80;30.50;;;;;;;;;;5090048;28;20024;-71
2023/09/08 02:45:11;;;;;;;57.53;30.25;;;;;;;;;;5100714;28;20024;-70
2023/09/08 02:47:37;;;;;;;55.00;30.52;;;;;;;;;;5107098;28;20028;-70
2023/09/08 02:50:04;;;;;;;57.63;30.88;;;;;;;;;;5104933;28;20375;-69
2023/09/08 02:52:30;;;;;;;52.50;30.50;;;;;;;;;;5106307;28;20038;-70
2023/09/08 02:54:57;;;;;;;54.30;30.92;;;;;;;;;;5096628;28;20365;-70
2023/09/08 02:57:23;;;;;;;57.65;31.38;;;;;;;;;;5107123;28;20364;-70
2023/09/08 02:59:50;;;;;;;52.45;29.98;;;;;;;;;;5096218;28;20032;-70
2023/09/08 03:02:17;;;;;;;56.10;30.42;;;;;;;;;;5102959;28;20102;-70
2023/09/08 03:04:43;;;;;;;52.97;30.63;;;;;;;;;;5102967;28;20028;-70
2023/09/08 03:07:09;;;;;;;47.25;28.25;;;;;;;;;;5104725;28;20028;-70
2023/09/08 03:09:35;;;;;;;51.97;27.42;;;;;;;;;;5086530;28;20539;-70
2023/09/08 03:12:01;;;;;;;62.13;30.80;;;;;;;;;;5100546;28;20028;-70
2023/09/08 03:14:27;;;;;;;49.85;31.60;;;;;;;;;;5085080;28;20438;-70
2023/09/08 03:16:54;;;;;;;48.65;30.38;;;;;;;;;;5105255;28;20050;-70
2023/09/08 03:19:20;;;;;;;54.25;30.98;;;;;;;;;;5104509;28;20034;-70
2023/09/08 03:21:46;;;;;;;55.78;32.15;;;;;;;;;;5103935;28;20121;-70
2023/09/08 03:24:12;;;;;;;50.13;30.70;;;;;;;;;;5086161;28;20015;-70
2023/09/08 03:26:40;;;;;;;48.00;28.95;;;;;;;;;;5101431;28;20530;-70
2023/09/08 03:29:06;;;;;;;56.67;31.52;;;;;;;;;;5103960;28;20271;-70
2023/09/08 03:31:32;;;;;;;50.97;28.02;;;;;;;;;;5087004;28;20807;-69
2023/09/08 03:33:58;;;;;;;47.30;29.05;;;;;;;;;;5082703;28;20035;-69
2023/09/08 03:36:25;;;;;;;48.00;27.50;;;;;;;;;;5105910;28;20020;-70
2023/09/08 03:38:51;;;;;;;47.30;28.10;;;;;;;;;;5085485;28;20051;-70
2023/09/08 03:41:17;;;;;;;46.25;27.05;;;;;;;;;;5102701;28;20061;-70
2023/09/08 03:43:43;;;;;;;51.05;28.08;;;;;;;;;;5099099;28;20032;-70
2023/09/08 03:46:09;;;;;;;51.63;28.45;;;;;;;;;;5083390;28;20029;-70
2023/09/08 03:48:35;;;;;;;45.58;28.45;;;;;;;;;;5101093;28;20028;-70
2023/09/08 03:51:02;;;;;;;50.83;30.35;;;;;;;;;;5103184;28;20102;-70
2023/09/08 03:53:28;;;;;;;46.65;28.25;;;;;;;;;;5096194;28;20040;-70
2023/09/08 03:55:54;;;;;;;46.88;26.92;;;;;;;;;;5097517;28;20035;-70
2023/09/08 03:58:20;;;;;;;46.67;30.67;;;;;;;;;;5104336;28;20510;-70
2023/09/08 04:00:46;;;;;;;50.28;28.67;;;;;;;;;;5103663;28;20032;-70
2023/09/08 04:03:12;;;;;;;47.53;27.67;;;;;;;;;;5104306;28;20043;-70
2023/09/08 04:05:39;;;;;;;49.10;28.95;;;;;;;;;;5099111;28;20103;-70
2023/09/08 04:08:05;;;;;;;47.60;28.48;;;;;;;;;;5105229;28;20046;-70
2023/09/08 04:10:31;;;;;;;43.08;27.08;;;;;;;;;;5101334;28;20023;-71
2023/09/08 04:12:57;;;;;;;45.53;28.92;;;;;;;;;;5103837;28;20487;-71
2023/09/08 04:15:23;;;;;;;46.28;28.70;;;;;;;;;;5079341;28;20747;-70
2023/09/08 04:17:50;;;;;;;52.53;29.75;;;;;;;;;;5099330;28;20505;-70
2023/09/08 04:20:16;;;;;;;48.95;28.80;;;;;;;;;;5103172;27;20081;-70
2023/09/08 04:22:42;;;;;;;52.13;30.38;;;;;;;;;;5106938;27;20104;-70
2023/09/08 04:25:09;;;;;;;54.85;29.13;;;;;;;;;;5101653;28;20038;-70
2023/09/08 04:27:36;;;;;;;48.88;30.35;;;;;;;;;;5084376;28;20495;-70
2023/09/08 04:30:04;;;;;;;46.45;29.40;;;;;;;;;;5101529;28;20092;-70
2023/09/08 04:32:30;;;;;;;50.75;29.02;;;;;;;;;;5106086;28;20028;-70
2023/09/08 04:34:56;;;;;;;46.75;27.77;;;;;;;;;;5103283;28;20035;-70
2023/09/08 04:37:22;;;;;;;46.88;27.60;;;;;;;;;;5097634;28;20123;-70
2023/09/08 04:39:48;;;;;;;49.40;30.42;;;;;;;;;;5104255;28;20038;-70
2023/09/08 04:42:15;;;;;;;46.70;29.50;;;;;;;;;;5087579;28;20028;-70
2023/09/08 04:44:41;;;;;;;54.92;32.85;;;;;;;;;;5103080;28;20120;-70
2023/09/08 04:47:07;;;;;;;51.10;30.60;;;;;;;;;;5104303;28;20106;-70
2023/09/08 04:49:33;;;;;;;51.75;29.77;;;;;;;;;;5099108;28;20023;-70
2023/09/08 04:51:59;;;;;;;50.85;29.85;;;;;;;;;;5102690;27;20076;-70
2023/09/08 04:54:27;;;;;;;50.30;30.45;;;;;;;;;;5084154;28;20028;-70
2023/09/08 04:56:54;;;;;;;55.25;33.10;;;;;;;;;;5102036;28;20497;-69
2023/09/08 04:59:20;;;;;;;49.20;28.75;;;;;;;;;;5101715;28;20113;-70
2023/09/08 05:01:46;;;;;;;53.25;30.85;;;;;;;;;;5095380;27;20530;-70
2023/09/08 05:04:13;;;;;;;48.78;30.65;;;;;;;;;;5095481;28;20088;-70
2023/09/08 05:06:39;;;;;;;49.08;29.55;;;;;;;;;;5101103;27;20710;-70
2023/09/08 05:09:06;;;;;;;46.45;30.65;;;;;;;;;;5101008;28;20465;-70
2023/09/08 05:11:33;;;;;;;45.60;27.95;;;;;;;;;;5100299;28;20429;-70
2023/09/08 05:13:59;;;;;;;57.97;32.92;;;;;;;;;;5103509;28;20129;-70
2023/09/08 05:16:36;;;;;;;47.53;28.73;;;;;;;;;;5101578;28;20467;-70
2023/09/08 05:19:03;;;;;;;49.45;30.50;;;;;;;;;;5103355;28;20045;-70
2023/09/08 05:21:29;;;;;;;48.70;28.67;;;;;;;;;;5097480;28;20024;-70
2023/09/08 05:23:55;;;;;;;49.75;30.63;;;;;;;;;;5084626;28;20068;-70
2023/09/08 05:26:22;;;;;;;50.70;29.38;;;;;;;;;;5083565;28;20060;-70
2023/09/08 05:28:48;;;;;;;49.58;28.55;;;;;;;;;;5084707;28;20035;-70
2023/09/08 05:31:14;;;;;;;48.70;28.77;;;;;;;;;;5101298;28;20066;-70
2023/09/08 05:33:40;;;;;;;43.42;26.55;;;;;;;;;;5101821;28;20134;-70
2023/09/08 05:36:06;;;;;;;47.92;30.27;;;;;;;;;;5080397;28;20027;-70
2023/09/08 05:38:32;;;;;;;48.03;27.88;;;;;;;;;;5102494;28;20020;-70
2023/09/08 05:40:59;;;;;;;48.03;29.17;;;;;;;;;;5098634;28;20059;-71
2023/09/08 05:43:26;;;;;;;48.78;29.58;;;;;;;;;;5099843;28;20111;-70
2023/09/08 05:45:52;;;;;;;48.47;27.13;;;;;;;;;;5099514;28;20027;-70
2023/09/08 05:48:18;;;;;;;45.65;27.17;;;;;;;;;;5101183;28;20028;-70
2023/09/08 05:50:44;;;;;;;44.92;26.00;;;;;;;;;;5101929;28;20111;-70
2023/09/08 05:53:10;;;;;;;49.10;27.20;;;;;;;;;;5102261;28;20024;-71
2023/09/08 05:55:36;;;;;;;43.75;27.88;;;;;;;;;;5079329;28;20081;-70
2023/09/08 05:58:02;;;;;;;44.80;26.70;;;;;;;;;;5101063;27;20028;-70
2023/09/08 06:00:28;;;;;;;46.42;26.60;;;;;;;;;;5092103;28;20600;-70
2023/09/08 06:02:55;;;;;;;45.33;27.17;;;;;;;;;;5100939;28;20447;-71
2023/09/08 06:05:21;;;;;;;39.97;24.35;;;;;;;;;;5099141;28;20043;-70
2023/09/08 06:07:48;;;;;;;44.55;26.65;;;;;;;;;;5101511;28;20159;-72
2023/09/08 06:10:15;;;;;;;40.88;24.98;;;;;;;;;;5080438;28;20023;-70
2023/09/08 06:12:43;;;;;;;37.95;24.88;;;;;;;;;;5097330;28;20490;-70
2023/09/08 06:15:09;;;;;;;43.45;25.70;;;;;;;;;;5101066;28;20039;-70
2023/09/08 06:17:35;;;;;;;42.72;23.33;;;;;;;;;;5080401;28;21968;-70
2023/09/08 06:20:02;;;;;;;44.63;27.30;;;;;;;;;;5101239;28;20031;-71
2023/09/08 06:22:28;;;;;;;40.70;27.23;;;;;;;;;;5101785;28;20063;-70
2023/09/08 06:24:54;;;;;;;40.15;26.50;;;;;;;;;;5081396;28;20522;-70
2023/09/08 06:27:20;;;;;;;45.45;25.92;;;;;;;;;;5098189;28;20037;-70
2023/09/08 06:29:46;;;;;;;40.60;26.95;;;;;;;;;;5103695;28;20111;-71
2023/09/08 06:32:12;;;;;;;43.95;27.33;;;;;;;;;;5099626;28;20110;-70
2023/09/08 06:34:38;;;;;;;43.40;26.77;;;;;;;;;;5101183;28;20020;-70
2023/09/08 06:37:05;;;;;;;37.25;24.65;;;;;;;;;;5081706;28;20752;-70
2023/09/08 06:39:31;;;;;;;44.78;25.45;;;;;;;;;;5101305;28;20020;-70
2023/09/08 06:41:57;;;;;;;44.53;27.83;;;;;;;;;;5079696;28;20039;-70
2023/09/08 06:44:25;;;;;;;46.70;27.33;;;;;;;;;;5099544;28;20055;-70
2023/09/08 06:46:52;;;;;;;42.58;27.13;;;;;;;;;;5094236;28;20034;-70
2023/09/08 06:49:18;;;;;;;45.88;27.38;;;;;;;;;;5091776;28;20023;-71
2023/09/08 06:51:44;;;;;;;43.35;27.40;;;;;;;;;;5098403;28;20106;-70
2023/09/08 06:54:10;;;;;;;48.67;27.40;;;;;;;;;;5084477;28;20032;-70
2023/09/08 06:56:40;;;;;;;46.22;28.45;;;;;;;;;;5082309;28;20047;-71
2023/09/08 06:59:06;;;;;;;45.78;28.35;;;;;;;;;;5075308;28;20605;-70
2023/09/08 07:01:32;;;;;;;47.08;27.88;;;;;;;;;;5097829;28;20375;-70
2023/09/08 07:03:58;;;;;;;41.63;26.13;;;;;;;;;;5099091;28;20032;-70
2023/09/08 07:06:24;;;;;;;37.58;24.48;;;;;;;;;;5093531;28;20073;-70
2023/09/08 07:08:50;;;;;;;36.90;24.60;;;;;;;;;;5100540;28;20554;-70
2023/09/08 07:11:17;;;;;;;41.60;25.17;;;;;;;;;;5095604;28;20022;-71
2023/09/08 07:13:43;;;;;;;37.10;24.17;;;;;;;;;;5076758;28;20164;-70
2023/09/08 07:16:09;;;;;;;38.67;23.95;;;;;;;;;;5097803;28;20050;-71
2023/09/08 07:18:37;;;;;;;37.65;24.45;;;;;;;;;;5085660;28;20023;-71
2023/09/08 07:21:03;;;;;;;40.88;24.33;;;;;;;;;;5083250;28;20368;-70
2023/09/08 07:23:30;;;;;;;37.83;23.98;;;;;;;;;;5091094;28;20487;-70
2023/09/08 07:25:56;;;;;;;38.20;24.77;;;;;;;;;;5086774;28;20265;-72
2023/09/08 07:28:22;;;;;;;44.85;27.25;;;;;;;;;;5103497;28;20115;-71
2023/09/08 07:30:48;;;;;;;37.72;26.05;;;;;;;;;;5105576;28;20491;-71
2023/09/08 07:33:14;;;;;;;42.97;26.92;;;;;;;;;;5091973;28;20598;-70
2023/09/08 07:35:41;;;;;;;40.70;27.25;;;;;;;;;;5085116;28;20601;-70
2023/09/08 07:38:07;;;;;;;43.33;26.83;;;;;;;;;;5106519;28;20019;-71
2023/09/08 07:40:34;;;;;;;42.58;25.77;;;;;;;;;;5107135;28;20080;-71
2023/09/08 07:43:00;;;;;;;40.72;25.55;;;;;;;;;;5102170;28;20522;-70
2023/09/08 07:45:26;;;;;;;36.63;24.95;;;;;;;;;;5105566;28;20584;-71
2023/09/08 07:47:52;;;;;;;38.22;23.48;;;;;;;;;;5103272;28;20031;-71
2023/09/08 07:50:20;;;;;;;40.05;25.00;;;;;;;;;;5102698;28;20433;-72
2023/09/08 07:52:48;;;;;;;42.50;25.10;;;;;;;;;;5097553;28;20084;-71
2023/09/08 07:55:14;;;;;;;38.15;24.85;;;;;;;;;;5095126;28;20106;-71
2023/09/08 07:57:42;;;;;;;40.22;25.33;;;;;;;;;;5103382;28;20035;-71
2023/09/08 08:00:10;;;;;;;39.90;27.30;;;;;;;;;;5103611;28;20059;-71
2023/09/08 08:02:38;;;;;;;43.55;26.35;;;;;;;;;;5097288;28;20031;-71
2023/09/08 08:05:04;;;;;;;40.85;26.38;;;;;;;;;;5105552;28;20059;-71
2023/09/08 08:07:30;;;;;;;40.08;27.08;;;;;;;;;;5105065;28;20040;-71
2023/09/08 08:09:56;;;;;;;41.47;27.58;;;;;;;;;;5106081;28;20027;-71
2023/09/08 08:12:25;;;;;;;37.30;26.77;;;;;;;;;;5101728;28;20032;-72
2023/09/08 08:14:51;;;;;;;38.47;24.48;;;;;;;;;;5080096;28;20027;-71
2023/09/08 08:17:19;;;;;;;38.05;24.60;;;;;;;;;;5092111;28;20106;-71
2023/09/08 08:19:46;;;;;;;34.08;22.13;;;;;;;;;;5084911;28;20096;-71
2023/09/08 08:22:12;;;;;;;28.85;21.10;;;;;;;;;;5099979;28;20383;-71
2023/09/08 08:24:38;;;;;;;29.98;19.00;;;;;;;;;;5101653;28;20086;-70
2023/09/08 08:27:04;;;;;;;28.73;19.27;;;;;;;;;;5102932;27;20513;-71
2023/09/08 08:29:31;;;;;;;24.95;16.15;;;;;;;;;;5098921;28;20035;-70
2023/09/08 08:31:57;;;;;;;26.88;14.45;;;;;;;;;;5102732;28;20031;-71
2023/09/08 08:34:23;;;;;;;20.15;13.82;;;;;;;;;;5083242;28;20028;-71
2023/09/08 08:36:50;;;;;;;18.85;13.05;;;;;;;;;;5100719;28;20027;-71
2023/09/08 08:39:16;;;;;;;17.00;11.20;;;;;;;;;;5105669;28;20024;-71
2023/09/08 08:41:42;;;;;;;18.90;11.85;;;;;;;;;;5087885;28;20028;-72
2023/09/08 08:44:09;;;;;;;20.65;11.90;;;;;;;;;;5075727;28;20491;-72
2023/09/08 08:46:36;;;;;;;24.35;12.70;;;;;;;;;;5103161;28;20360;-72
2023/09/08 08:49:06;;;;;;;16.75;12.30;;;;;;;;;;5096267;28;20459;-72
2023/09/08 08:51:32;;;;;;;18.75;11.73;;;;;;;;;;5078094;28;20027;-72
2023/09/08 08:54:04;;;;;;;19.33;13.02;;;;;;;;;;5102066;27;20367;-72
2023/09/08 08:56:30;;;;;;;21.67;13.13;;;;;;;;;;5100026;28;20471;-72
2023/09/08 08:58:57;;;;;;;20.98;13.52;;;;;;;;;;5101264;28;20035;-72
2023/09/08 09:01:24;;;;;;;16.00;11.02;;;;;;;;;;5102016;28;21017;-72
2023/09/08 09:03:50;;;;;;;22.20;12.27;;;;;;;;;;5098261;28;20038;-72
2023/09/08 09:06:17;;;;;;;17.73;11.88;;;;;;;;;;5099555;28;20047;-72
2023/09/08 09:08:44;;;;;;;18.85;11.18;;;;;;;;;;5102501;28;20032;-72
2023/09/08 09:11:12;;;;;;;16.20;10.55;;;;;;;;;;5101631;28;20100;-73
2023/09/08 09:13:39;;;;;;;20.52;11.88;;;;;;;;;;5100136;28;20024;-72
2023/09/08 09:16:10;;;;;;;17.77;10.40;;;;;;;;;;5099407;28;20044;-72
2023/09/08 09:18:54;;;;;;;17.77;10.35;;;;;;;;;;5104597;28;20019;-72
2023/09/08 09:21:20;;;;;;;14.52;11.38;;;;;;;;;;5098380;28;20660;-71
2023/09/08 09:23:46;;;;;;;19.98;10.82;;;;;;;;;;5083391;28;20487;-73
2023/09/08 09:26:23;;;;;;;12.90;9.90;;;;;;;;;;5101989;28;20031;-72
2023/09/08 09:28:49;;;;;;;13.43;10.10;;;;;;;;;;5100736;28;20042;-72
2023/09/08 09:31:15;;;;;;;13.50;9.73;;;;;;;;;;5098396;28;20035;-72
2023/09/08 09:33:42;;;;;;;20.05;11.15;;;;;;;;;;5100470;28;20032;-72
2023/09/08 09:36:09;;;;;;;15.90;10.02;;;;;;;;;;5084963;28;20499;-72
2023/09/08 09:38:35;;;;;;;12.60;8.80;;;;;;;;;;5106361;28;20046;-72
2023/09/08 09:41:01;;;;;;;12.70;9.15;;;;;;;;;;5102735;28;20031;-73
2023/09/08 09:43:29;;;;;;;16.42;8.77;;;;;;;;;;5102250;28;20471;-73
2023/09/08 09:45:58;;;;;;;10.90;8.60;;;;;;;;;;5093854;28;20118;-72
2023/09/08 09:48:24;;;;;;;16.05;9.60;;;;;;;;;;5090707;28;20023;-73
2023/09/08 09:50:50;;;;;;;15.75;8.85;;;;;;;;;;5091885;28;20063;-72
2023/09/08 09:53:18;;;;;;;13.40;8.75;;;;;;;;;;5101098;28;20027;-72
2023/09/08 09:55:45;;;;;;;14.15;8.05;;;;;;;;;;5093395;28;20317;-72
2023/09/08 09:58:12;;;;;;;16.92;8.98;;;;;;;;;;5102896;28;20107;-72
2023/09/08 10:00:40;;;;;;;14.98;8.25;;;;;;;;;;5104276;28;20375;-72
2023/09/08 10:03:08;;;;;;;14.00;8.45;;;;;;;;;;5082393;28;20105;-73
2023/09/08 10:05:34;;;;;;;12.18;7.75;;;;;;;;;;5084563;28;20130;-72
2023/09/08 10:08:00;;;;;;;14.10;8.02;;;;;;;;;;5102403;28;20039;-73
2023/09/08 10:10:30;;;;;;;15.80;8.63;;;;;;;;;;5096063;28;20028;-73
2023/09/08 10:12:59;;;;;;;14.65;8.45;;;;;;;;;;5100445;28;20035;-72
2023/09/08 10:15:25;;;;;;;10.93;8.02;;;;;;;;;;5102918;28;20064;-73
2023/09/08 10:17:56;;;;;;;12.98;7.47;;;;;;;;;;5101106;28;20506;-72
2023/09/08 10:20:23;;;;;;;10.43;7.78;;;;;;;;;;5103914;28;20102;-72
2023/09/08 10:22:53;;;;;;;15.77;8.30;;;;;;;;;;5094736;28;20032;-72
2023/09/08 10:25:21;;;;;;;16.88;8.35;;;;;;;;;;5102418;28;20440;-72
2023/09/08 10:27:47;;;;;;;13.43;7.20;;;;;;;;;;5102478;28;20023;-73
2023/09/08 10:30:16;;;;;;;13.82;8.18;;;;;;;;;;5082635;28;20028;-73
2023/09/08 10:32:43;;;;;;;18.67;9.00;;;;;;;;;;5104020;28;20027;-72
2023/09/08 10:35:09;;;;;;;14.95;7.38;;;;;;;;;;5101956;28;20028;-72
2023/09/08 10:37:35;;;;;;;13.27;7.20;;;;;;;;;;5098973;28;20103;-72
2023/09/08 10:40:20;;;;;;;12.27;7.80;;;;;;;;;;5097112;28;20359;-73
2023/09/08 10:42:46;;;;;;;11.50;7.63;;;;;;;;;;5100572;28;20026;-72
2023/09/08 10:45:17;;;;;;;12.40;7.30;;;;;;;;;;5101498;28;20024;-73
2023/09/08 10:47:46;;;;;;;12.52;7.63;;;;;;;;;;5083325;28;20256;-73
2023/09/08 10:50:19;;;;;;;12.65;7.00;;;;;;;;;;5101292;28;20118;-73
2023/09/08 10:52:45;;;;;;;12.25;7.63;;;;;;;;;;5103078;28;20376;-72
2023/09/08 10:55:12;;;;;;;12.23;7.25;;;;;;;;;;5099149;28;20489;-73
2023/09/08 10:57:45;;;;;;;18.05;8.00;;;;;;;;;;5104590;28;20023;-72
2023/09/08 11:00:14;;;;;;;13.30;7.35;;;;;;;;;;5104105;28;20032;-73
2023/09/08 11:02:50;;;;;;;11.65;7.22;;;;;;;;;;5089059;28;20027;-72
2023/09/08 11:05:19;;;;;;;11.57;9.00;;;;;;;;;;5104116;28;20039;-73
2023/09/08 11:07:47;;;;;;;10.57;7.60;;;;;;;;;;5092855;28;20064;-72
2023/09/08 11:10:15;;;;;;;12.85;6.95;;;;;;;;;;5085247;27;20063;-75
2023/09/08 11:12:41;;;;;;;14.63;7.30;;;;;;;;;;5078771;28;20035;-74
2023/09/08 11:15:08;;;;;;;12.20;8.23;;;;;;;;;;5096003;28;20051;-74
2023/09/08 11:17:44;;;;;;;10.63;6.68;;;;;;;;;;5083709;28;20355;-75
2023/09/08 11:20:12;;;;;;;10.57;6.80;;;;;;;;;;5074197;28;20032;-75
2023/09/08 11:22:39;;;;;;;11.13;7.25;;;;;;;;;;5096339;28;20136;-74
2023/09/08 11:25:07;;;;;;;9.50;7.40;;;;;;;;;;5073758;28;20535;-75
2023/09/08 11:27:34;;;;;;;11.00;7.65;;;;;;;;;;5096317;28;20093;-74
2023/09/08 11:30:00;;;;;;;11.73;7.68;;;;;;;;;;5096646;28;20036;-74
2023/09/08 11:32:32;;;;;;;11.52;7.45;;;;;;;;;;5098577;28;20081;-72
2023/09/08 11:35:03;;;;;;;10.77;7.30;;;;;;;;;;5095224;28;20479;-72
2023/09/08 11:37:29;;;;;;;14.63;6.82;;;;;;;;;;5096700;28;20019;-72
2023/09/08 11:39:56;;;;;;;12.40;7.20;;;;;;;;;;5096722;28;20023;-72
2023/09/08 11:42:22;;;;;;;11.77;7.43;;;;;;;;;;5100638;28;20024;-74
2023/09/08 11:44:49;;;;;;;10.48;7.47;;;;;;;;;;5099672;28;20428;-74
2023/09/08 11:47:15;;;;;;;15.80;6.88;;;;;;;;;;5095020;28;20645;-73
2023/09/08 11:49:44;;;;;;;12.70;6.65;;;;;;;;;;5094381;28;20081;-73
2023/09/08 11:52:10;;;;;;;8.95;6.72;;;;;;;;;;5098524;28;20023;-73
2023/09/08 11:54:38;;;;;;;10.07;6.93;;;;;;;;;;5096130;28;20039;-73
2023/09/08 11:57:07;;;;;;;10.93;6.95;;;;;;;;;;5090989;28;20032;-73
2023/09/08 11:59:34;;;;;;;10.32;6.80;;;;;;;;;;5097519;28;20070;-75
2023/09/08 12:02:01;;;;;;;13.13;6.43;;;;;;;;;;5105118;28;20487;-73
2023/09/08 12:04:27;;;;;;;13.45;6.45;;;;;;;;;;5105759;28;20458;-73
2023/09/08 12:06:57;;;;;;;13.85;8.93;;;;;;;;;;5098918;28;20019;-73
2023/09/08 12:09:23;;;;;;;13.05;7.30;;;;;;;;;;5077637;28;20028;-75
2023/09/08 12:11:50;;;;;;;11.38;6.80;;;;;;;;;;5082182;28;20032;-73
2023/09/08 12:14:16;;;;;;;13.18;7.50;;;;;;;;;;5099969;28;20467;-73
2023/09/08 12:16:43;;;;;;;14.85;7.65;;;;;;;;;;5099287;28;20047;-73
2023/09/08 12:19:28;;;;;;;18.30;8.77;;;;;;;;;;5102346;28;20371;-73
2023/09/08 12:21:56;;;;;;;16.27;7.72;;;;;;;;;;5100150;28;20020;-73
2023/09/08 12:24:41;;;;;;;8.82;6.95;;;;;;;;;;5091908;28;20031;-74
2023/09/08 12:27:07;;;;;;;15.43;7.68;;;;;;;;;;5097225;28;20089;-73
2023/09/08 12:29:33;;;;;;;12.85;6.97;;;;;;;;;;5098737;28;20505;-73
2023/09/08 12:31:59;;;;;;;12.18;7.25;;;;;;;;;;5084971;28;20048;-73
2023/09/08 12:34:26;;;;;;;11.82;6.57;;;;;;;;;;5104460;28;20028;-73
2023/09/08 12:36:56;;;;;;;12.02;7.50;;;;;;;;;;5096146;28;20513;-73
2023/09/08 12:39:22;;;;;;;12.95;7.35;;;;;;;;;;5096625;28;20125;-73
2023/09/08 12:41:48;;;;;;;11.98;7.10;;;;;;;;;;5095654;28;20486;-73
2023/09/08 12:44:15;;;;;;;15.95;7.43;;;;;;;;;;5093811;28;20415;-74
2023/09/08 12:46:41;;;;;;;10.60;6.45;;;;;;;;;;5099404;28;20032;-73
2023/09/08 12:49:07;;;;;;;14.23;8.13;;;;;;;;;;5099932;28;20046;-73
2023/09/08 12:51:33;;;;;;;12.18;7.63;;;;;;;;;;5100177;28;20145;-74
2023/09/08 12:53:59;;;;;;;15.68;6.93;;;;;;;;;;5098024;28;20024;-74
2023/09/08 12:56:25;;;;;;;14.35;7.47;;;;;;;;;;5102806;28;20076;-73
2023/09/08 12:58:51;;;;;;;14.55;8.18;;;;;;;;;;5099820;27;20028;-73
2023/09/08 13:01:18;;;;;;;15.48;7.82;;;;;;;;;;5085590;28;20440;-74
2023/09/08 13:03:44;;;;;;;19.10;6.78;;;;;;;;;;5098371;28;20495;-74
2023/09/08 13:06:10;;;;;;;10.45;7.25;;;;;;;;;;5098226;28;20491;-74
2023/09/08 13:08:36;;;;;;;10.80;7.70;;;;;;;;;;5106455;28;20023;-74
2023/09/08 13:11:03;;;;;;;11.88;6.63;;;;;;;;;;5094875;28;20143;-74
2023/09/08 13:13:30;;;;;;;8.95;6.80;;;;;;;;;;5090878;28;20502;-74
2023/09/08 13:15:57;;;;;;;11.65;6.55;;;;;;;;;;5089605;28;20159;-72
2023/09/08 13:18:23;;;;;;;13.50;7.07;;;;;;;;;;5099768;28;20031;-70
2023/09/08 13:20:49;;;;;;;11.32;6.97;;;;;;;;;;5104881;28;20031;-70
2023/09/08 13:23:15;;;;;;;15.10;7.18;;;;;;;;;;5103003;28;20110;-71
2023/09/08 13:25:41;;;;;;;11.48;6.88;;;;;;;;;;5076526;28;20028;-71
2023/09/08 13:28:08;;;;;;;11.88;6.97;;;;;;;;;;5098305;28;20027;-73
2023/09/08 13:30:34;;;;;;;11.48;5.85;;;;;;;;;;5096199;28;20027;-72
2023/09/08 13:33:00;;;;;;;10.57;6.43;;;;;;;;;;5090667;28;20415;-71
2023/09/08 13:35:26;;;;;;;13.20;6.55;;;;;;;;;;5098659;28;20032;-71
2023/09/08 13:37:53;;;;;;;14.23;6.85;;;;;;;;;;5097714;28;20027;-70
2023/09/08 13:40:19;;;;;;;11.07;6.75;;;;;;;;;;5098900;28;20024;-71
2023/09/08 13:42:45;;;;;;;15.30;6.60;;;;;;;;;;5100109;28;20213;-71
2023/09/08 13:45:11;;;;;;;12.43;7.10;;;;;;;;;;5077854;28;20156;-71
2023/09/08 13:47:38;;;;;;;12.85;7.18;;;;;;;;;;5099625;28;20490;-70
2023/09/08 13:50:04;;;;;;;9.60;6.22;;;;;;;;;;5099890;28;20102;-70
2023/09/08 13:52:30;;;;;;;13.15;6.68;;;;;;;;;;5098434;28;20028;-70
2023/09/08 13:54:56;;;;;;;14.05;7.50;;;;;;;;;;5080811;28;20031;-70
2023/09/08 13:57:25;;;;;;;11.68;7.22;;;;;;;;;;5097485;28;20051;-72
2023/09/08 13:59:54;;;;;;;12.02;7.47;;;;;;;;;;5079409;28;20070;-72
2023/09/08 14:02:20;;;;;;;12.57;6.90;;;;;;;;;;5098872;28;20023;-73
2023/09/08 14:04:46;;;;;;;13.18;6.65;;;;;;;;;;5099097;28;20026;-72
2023/09/08 14:07:13;;;;;;;16.63;6.68;;;;;;;;;;5094608;28;20138;-72
2023/09/08 14:09:43;;;;;;;13.45;5.90;;;;;;;;;;5094698;28;20488;-72
2023/09/08 14:12:09;;;;;;;8.68;5.25;;;;;;;;;;5098363;28;20548;-73
2023/09/08 14:14:35;;;;;;;11.48;5.85;;;;;;;;;;5078974;28;20106;-72
2023/09/08 14:17:01;;;;;;;15.93;5.97;;;;;;;;;;5081915;28;20050;-73
2023/09/08 14:19:27;;;;;;;15.20;6.03;;;;;;;;;;5096753;28;20372;-73